Time;durP1;ratioP1;P1;durP2;ratioP2;P2;SDS_P1;SDS_P2;PMS_P1;PMS_P2;Temp;Humidity;BMP_temperature;BMP_pressure;BME280_temperature;BME280_humidity;BME280_pressure;Samples;Min_cycle;Max_cycle;Signal;HPM_P1;HPM_P2
2021/05/01 00:02:01;;;;;;;24.58;15.25;;;14.70;95.00;;;;;;5093333;28;20020;-82
2021/05/01 00:04:26;;;;;;;29.10;16.48;;;14.70;94.90;;;;;;5094399;28;20040;-81
2021/05/01 00:06:53;;;;;;;26.33;16.40;;;14.70;94.80;;;;;;5094625;28;20075;-81
2021/05/01 00:09:18;;;;;;;24.05;16.35;;;14.60;94.70;;;;;;5094400;28;20347;-81
2021/05/01 00:11:44;;;;;;;22.67;15.25;;;14.60;94.70;;;;;;5093060;28;20027;-80
2021/05/01 00:14:10;;;;;;;25.73;15.32;;;14.50;94.80;;;;;;5094630;28;20020;-80
2021/05/01 00:16:36;;;;;;;27.05;16.77;;;14.50;94.90;;;;;;5094295;28;20036;-82
2021/05/01 00:19:02;;;;;;;28.08;17.35;;;14.40;94.90;;;;;;5094771;28;20138;-81
2021/05/01 00:21:28;;;;;;;25.35;15.65;;;14.40;95.00;;;;;;5094059;28;20099;-82
2021/05/01 00:23:54;;;;;;;21.85;14.40;;;14.30;95.10;;;;;;5094468;28;20473;-82
2021/05/01 00:26:20;;;;;;;24.40;15.82;;;14.30;95.40;;;;;;5092846;28;20478;-81
2021/05/01 00:28:46;;;;;;;26.45;16.13;;;14.30;95.80;;;;;;5092901;28;20054;-81
2021/05/01 00:31:13;;;;;;;23.15;14.80;;;14.20;95.70;;;;;;5092393;28;20020;-81
2021/05/01 00:33:39;;;;;;;22.52;14.95;;;14.20;95.90;;;;;;5094038;28;20020;-81
2021/05/01 00:36:05;;;;;;;22.05;14.35;;;14.20;96.00;;;;;;5094088;28;20024;-81
2021/05/01 00:38:31;;;;;;;21.42;14.15;;;14.20;96.00;;;;;;5092294;28;20023;-81
2021/05/01 00:40:59;;;;;;;20.02;13.30;;;14.20;95.90;;;;;;5094388;28;20024;-81
2021/05/01 00:43:25;;;;;;;19.27;12.82;;;14.20;95.90;;;;;;5093710;28;20016;-81
2021/05/01 00:45:51;;;;;;;19.90;12.07;;;14.20;95.90;;;;;;5092349;28;20019;-81
2021/05/01 00:48:16;;;;;;;17.33;11.50;;;14.10;95.90;;;;;;5092467;28;20515;-78
2021/05/01 00:50:42;;;;;;;17.52;11.23;;;14.20;95.90;;;;;;5093476;28;20065;-81
2021/05/01 00:53:08;;;;;;;15.07;10.25;;;14.10;95.80;;;;;;5091662;28;20343;-82
2021/05/01 00:55:34;;;;;;;16.27;9.52;;;14.10;95.80;;;;;;5093768;28;20059;-82
2021/05/01 00:58:00;;;;;;;15.32;9.52;;;14.10;95.80;;;;;;5093625;28;20020;-81
2021/05/01 01:02:52;;;;;;;17.77;9.30;;;14.00;95.70;;;;;;5093725;28;20020;-81
2021/05/01 01:05:18;;;;;;;14.43;9.30;;;14.00;95.70;;;;;;5093722;28;20085;-79
2021/05/01 01:07:44;;;;;;;13.98;8.75;;;14.00;95.70;;;;;;5092246;28;20027;-81
2021/05/01 01:10:10;;;;;;;13.35;8.85;;;14.00;95.90;;;;;;5093494;28;20024;-81
2021/05/01 01:12:35;;;;;;;11.98;9.10;;;13.90;95.60;;;;;;5092880;28;20036;-80
2021/05/01 01:15:02;;;;;;;14.00;8.50;;;13.90;95.60;;;;;;5093578;28;20027;-81
2021/05/01 01:17:28;;;;;;;13.55;9.00;;;13.90;95.60;;;;;;5092218;28;20028;-80
2021/05/01 01:19:54;;;;;;;14.32;9.35;;;13.80;95.60;;;;;;5092139;28;20468;-81
2021/05/01 01:22:19;;;;;;;15.32;8.82;;;13.80;95.60;;;;;;5092008;28;20070;-81
2021/05/01 01:24:46;;;;;;;13.30;7.93;;;13.70;95.60;;;;;;5093211;28;20362;-81
2021/05/01 01:27:11;;;;;;;11.95;8.13;;;13.70;95.60;;;;;;5092005;28;20036;-80
2021/05/01 01:29:40;;;;;;;11.93;8.07;;;13.70;95.70;;;;;;5092864;28;20024;-81
2021/05/01 01:32:07;;;;;;;14.10;8.35;;;13.60;95.60;;;;;;5092086;28;20023;-81
2021/05/01 01:34:33;;;;;;;13.27;8.05;;;13.60;95.60;;;;;;5092992;28;20067;-80
2021/05/01 01:36:59;;;;;;;12.25;8.30;;;13.60;95.60;;;;;;5091827;28;20024;-82
2021/05/01 01:39:25;;;;;;;12.07;7.75;;;13.50;95.70;;;;;;5092035;28;20020;-80
2021/05/01 01:41:51;;;;;;;11.90;7.50;;;13.50;95.80;;;;;;5091610;28;20043;-80
2021/05/01 01:44:17;;;;;;;16.50;7.40;;;13.40;95.80;;;;;;5093205;28;20145;-80
2021/05/01 01:46:42;;;;;;;9.55;7.13;;;13.40;95.90;;;;;;5091771;28;20024;-82
2021/05/01 01:49:08;;;;;;;12.95;8.07;;;13.40;96.00;;;;;;5091914;28;20107;-80
2021/05/01 01:51:34;;;;;;;11.65;8.02;;;13.40;96.10;;;;;;5092138;28;20495;-80
2021/05/01 01:53:59;;;;;;;12.82;7.82;;;13.40;96.20;;;;;;5093098;28;20178;-80
2021/05/01 01:56:26;;;;;;;11.93;7.65;;;13.30;96.20;;;;;;5091497;28;20119;-80
2021/05/01 01:58:53;;;;;;;13.13;7.95;;;13.30;96.40;;;;;;5092137;28;20020;-80
2021/05/01 02:01:19;;;;;;;13.18;8.40;;;13.30;96.50;;;;;;5092871;28;20357;-81
2021/05/01 02:03:45;;;;;;;14.07;8.55;;;13.30;96.60;;;;;;5091638;28;20024;-80
2021/05/01 02:06:11;;;;;;;13.15;8.10;;;13.30;96.70;;;;;;5096688;28;20039;-81
2021/05/01 02:08:36;;;;;;;11.85;8.40;;;13.30;96.70;;;;;;5096615;28;20114;-80
2021/05/01 02:11:02;;;;;;;12.48;8.88;;;13.30;96.70;;;;;;5096639;28;20020;-80
2021/05/01 02:13:28;;;;;;;16.40;10.43;;;13.30;96.80;;;;;;5095301;28;20044;-82
2021/05/01 02:15:54;;;;;;;15.35;8.85;;;13.30;96.80;;;;;;5095445;28;20023;-81
2021/05/01 02:18:20;;;;;;;14.35;9.18;;;13.30;96.80;;;;;;5095523;28;20016;-80
2021/05/01 02:20:46;;;;;;;13.93;9.30;;;13.30;96.80;;;;;;5096093;28;20518;-79
2021/05/01 02:23:11;;;;;;;14.43;10.65;;;13.30;96.90;;;;;;5096528;28;20024;-81
2021/05/01 02:25:37;;;;;;;13.25;8.98;;;13.20;96.80;;;;;;5096226;28;20157;-80
2021/05/01 02:28:04;;;;;;;14.30;9.35;;;13.20;96.70;;;;;;5096602;28;20089;-80
2021/05/01 02:30:30;;;;;;;15.88;10.02;;;13.10;96.50;;;;;;5094943;28;20046;-81
2021/05/01 02:32:57;;;;;;;13.88;9.95;;;13.00;96.50;;;;;;5095373;28;20366;-80
2021/05/01 02:35:32;;;;;;;15.57;9.48;;;12.90;96.70;;;;;;5094975;28;20024;-80
2021/05/01 02:37:59;;;;;;;13.25;9.13;;;12.80;96.90;;;;;;5096468;28;20028;-80
2021/05/01 02:40:30;;;;;;;17.73;11.52;;;12.80;97.20;;;;;;5095740;28;20030;-77
2021/05/01 02:42:56;;;;;;;18.80;11.93;;;12.80;97.50;;;;;;5095330;28;20454;-80
2021/05/01 02:45:22;;;;;;;19.73;13.27;;;12.80;97.80;;;;;;5094706;28;20020;-79
2021/05/01 02:47:49;;;;;;;21.17;13.38;;;12.90;98.00;;;;;;5096003;28;20028;-79
2021/05/01 02:50:17;;;;;;;17.85;11.90;;;12.90;98.20;;;;;;5094751;28;20024;-80
2021/05/01 02:52:42;;;;;;;19.88;12.13;;;13.00;98.20;;;;;;5094599;28;20020;-79
2021/05/01 02:55:09;;;;;;;21.40;14.48;;;13.10;98.20;;;;;;5094951;28;20027;-79
2021/05/01 02:57:35;;;;;;;16.80;10.98;;;13.20;98.40;;;;;;5094907;28;20028;-79
2021/05/01 03:00:03;;;;;;;16.65;11.48;;;13.30;98.50;;;;;;5095550;28;20108;-80
2021/05/01 03:02:30;;;;;;;16.67;11.63;;;13.50;98.60;;;;;;5088853;28;20025;-80
2021/05/01 03:04:56;;;;;;;16.70;10.85;;;13.70;98.60;;;;;;5094451;28;20073;-81
2021/05/01 03:07:23;;;;;;;16.45;11.60;;;13.80;98.40;;;;;;5079835;28;20024;-80
2021/05/01 03:09:49;;;;;;;18.55;12.70;;;14.00;98.30;;;;;;5094610;28;20024;-78
2021/05/01 03:12:15;;;;;;;18.10;12.20;;;14.20;98.10;;;;;;5093938;28;20063;-81
2021/05/01 03:14:41;;;;;;;17.08;11.57;;;14.40;98.00;;;;;;5094846;28;20020;-73
2021/05/01 03:17:07;;;;;;;21.48;12.32;;;14.60;97.80;;;;;;5096811;28;20020;-78
2021/05/01 03:19:32;;;;;;;17.25;12.05;;;14.80;97.50;;;;;;5094001;28;20111;-79
2021/05/01 03:21:59;;;;;;;17.30;11.70;;;15.00;97.20;;;;;;5093858;28;20059;-79
2021/05/01 03:24:24;;;;;;;22.35;12.00;;;15.20;97.10;;;;;;5095383;28;20017;-77
2021/05/01 03:26:50;;;;;;;20.63;11.18;;;15.40;96.90;;;;;;5094322;28;20044;-80
2021/05/01 03:29:16;;;;;;;18.23;11.70;;;15.70;96.60;;;;;;5093758;28;20050;-81
2021/05/01 03:31:42;;;;;;;18.48;11.40;;;16.00;96.10;;;;;;5095326;28;20023;-81
2021/05/01 03:34:07;;;;;;;14.85;10.18;;;16.30;95.50;;;;;;5095107;28;20181;-81
2021/05/01 03:36:33;;;;;;;14.63;10.15;;;16.50;94.80;;;;;;5093372;28;20116;-82
2021/05/01 03:38:59;;;;;;;18.25;10.20;;;16.80;94.10;;;;;;5093934;28;20023;-82
2021/05/01 03:41:25;;;;;;;18.33;14.38;;;17.00;93.20;;;;;;5094770;28;20051;-81
2021/05/01 03:43:50;;;;;;;20.35;14.75;;;17.20;92.20;;;;;;5093531;28;20016;-80
2021/05/01 03:46:16;;;;;;;22.77;14.23;;;17.30;91.60;;;;;;5093484;28;20039;-79
2021/05/01 03:48:42;;;;;;;21.52;13.65;;;17.50;91.00;;;;;;5094450;28;20045;-80
2021/05/01 03:51:07;;;;;;;19.17;14.93;;;17.70;90.60;;;;;;5094756;28;20024;-80
2021/05/01 03:53:33;;;;;;;20.08;14.90;;;17.90;90.00;;;;;;5093481;28;20027;-80
2021/05/01 03:55:59;;;;;;;18.02;14.10;;;18.10;88.60;;;;;;5093421;28;20093;-80
2021/05/01 03:58:25;;;;;;;17.13;11.95;;;18.30;87.80;;;;;;5093392;28;20453;-78
2021/05/01 04:00:51;;;;;;;15.63;12.10;;;18.60;86.70;;;;;;5094366;28;20024;-80
2021/05/01 04:03:17;;;;;;;14.88;11.40;;;19.00;85.60;;;;;;5094374;28;20023;-81
2021/05/01 04:05:43;;;;;;;14.98;10.95;;;19.40;83.90;;;;;;5092789;28;20450;-81
2021/05/01 04:08:09;;;;;;;14.52;10.68;;;19.80;82.20;;;;;;5093478;28;20016;-80
2021/05/01 04:10:34;;;;;;;14.05;10.90;;;20.20;80.00;;;;;;5092688;28;20027;-80
2021/05/01 04:13:01;;;;;;;16.85;11.93;;;20.50;78.60;;;;;;5093162;28;20100;-80
2021/05/01 04:15:27;;;;;;;13.70;10.40;;;20.80;76.40;;;;;;5094472;28;20458;-80
2021/05/01 04:17:53;;;;;;;14.57;10.93;;;21.00;75.60;;;;;;5094232;28;20027;-82
2021/05/01 04:20:20;;;;;;;14.88;10.82;;;21.20;74.30;;;;;;5094224;28;20366;-79
2021/05/01 04:22:46;;;;;;;13.50;11.10;;;21.40;73.50;;;;;;5092350;28;20042;-80
2021/05/01 04:25:12;;;;;;;13.70;11.02;;;21.70;72.60;;;;;;5092525;28;20067;-81
2021/05/01 04:27:38;;;;;;;15.07;10.55;;;21.90;71.30;;;;;;5093543;28;20080;-80
2021/05/01 04:30:07;;;;;;;14.48;10.65;;;22.00;70.40;;;;;;5092498;28;20024;-80
2021/05/01 04:32:32;;;;;;;13.35;10.25;;;22.20;69.20;;;;;;5101150;28;20053;-81
2021/05/01 04:34:58;;;;;;;12.38;9.90;;;22.40;68.90;;;;;;5092620;28;20028;-81
2021/05/01 04:37:24;;;;;;;14.38;9.98;;;22.60;67.90;;;;;;5093013;28;20051;-80
2021/05/01 04:39:50;;;;;;;10.48;8.50;;;22.80;66.80;;;;;;5092870;28;20022;-79
2021/05/01 04:42:15;;;;;;;10.65;8.25;;;22.90;65.80;;;;;;5094305;28;20020;-81
2021/05/01 04:44:41;;;;;;;12.13;9.20;;;23.10;65.10;;;;;;5092645;28;20016;-81
2021/05/01 04:47:07;;;;;;;12.77;8.75;;;23.40;64.20;;;;;;5092169;28;20081;-80
2021/05/01 04:49:33;;;;;;;11.57;8.43;;;23.50;63.50;;;;;;5092246;28;20055;-80
2021/05/01 04:52:00;;;;;;;11.60;7.82;;;23.70;63.20;;;;;;5092414;28;20047;-79
2021/05/01 04:54:26;;;;;;;11.68;8.50;;;24.00;62.30;;;;;;5093686;28;20039;-78
2021/05/01 04:56:52;;;;;;;12.18;8.73;;;24.30;61.50;;;;;;5093365;28;20451;-79
2021/05/01 04:59:17;;;;;;;10.00;6.75;;;24.70;60.70;;;;;;5092161;28;20024;-80
2021/05/01 05:01:43;;;;;;;9.18;6.60;;;24.90;59.60;;;;;;5093608;28;20431;-81
2021/05/01 05:04:09;;;;;;;9.38;7.25;;;25.20;58.40;;;;;;5093446;28;20091;-81
2021/05/01 05:06:34;;;;;;;10.18;7.45;;;25.30;57.70;;;;;;5092221;28;20127;-80
2021/05/01 05:09:02;;;;;;;10.07;6.40;;;25.50;57.20;;;;;;5092118;28;20370;-80
2021/05/01 05:11:28;;;;;;;8.90;5.80;;;25.70;56.50;;;;;;5093944;28;20027;-80
2021/05/01 05:13:53;;;;;;;7.72;6.20;;;26.00;55.40;;;;;;5092251;28;20382;-79
2021/05/01 05:16:20;;;;;;;9.90;6.07;;;26.20;54.90;;;;;;5092154;28;20374;-80
2021/05/01 05:18:46;;;;;;;8.02;6.13;;;26.30;54.80;;;;;;5091712;28;20048;-80
2021/05/01 05:21:12;;;;;;;7.40;5.55;;;26.50;54.20;;;;;;5091822;28;20024;-80
2021/05/01 05:23:37;;;;;;;7.45;5.45;;;26.70;53.80;;;;;;5092044;28;20114;-80
2021/05/01 05:26:03;;;;;;;6.55;5.30;;;27.10;53.30;;;;;;5091751;28;20365;-80
2021/05/01 05:28:29;;;;;;;7.78;5.40;;;27.20;52.20;;;;;;5092927;28;20066;-80
2021/05/01 05:30:55;;;;;;;7.45;4.78;;;27.20;51.50;;;;;;5093009;28;20020;-80
2021/05/01 05:33:21;;;;;;;8.25;4.70;;;27.10;51.30;;;;;;5093038;28;20012;-80
2021/05/01 05:35:46;;;;;;;7.30;5.00;;;27.10;51.10;;;;;;5092063;28;20463;-79
2021/05/01 05:38:12;;;;;;;7.63;5.30;;;27.10;51.40;;;;;;5092198;28;20046;-79
2021/05/01 05:40:41;;;;;;;8.05;5.60;;;27.20;51.00;;;;;;5096707;28;20034;-80
2021/05/01 05:43:07;;;;;;;8.52;5.80;;;27.30;50.50;;;;;;5097578;28;20030;-81
2021/05/01 05:45:33;;;;;;;6.68;5.05;;;27.30;50.00;;;;;;5095816;28;20523;-80
2021/05/01 05:47:59;;;;;;;8.38;5.18;;;27.50;50.30;;;;;;5097359;28;20777;-81
2021/05/01 05:50:26;;;;;;;7.82;5.25;;;27.70;49.90;;;;;;5096942;28;20031;-79
2021/05/01 05:52:51;;;;;;;9.30;5.15;;;27.80;49.40;;;;;;5097302;28;20026;-81
2021/05/01 05:55:17;;;;;;;11.13;5.90;;;27.80;49.20;;;;;;5096817;28;20369;-80
2021/05/01 05:57:54;;;;;;;7.65;5.70;;;27.90;49.10;;;;;;5095946;28;20023;-81
2021/05/01 06:00:22;;;;;;;7.63;5.20;;;28.00;49.10;;;;;;5095383;28;20044;-80
2021/05/01 06:02:48;;;;;;;7.57;5.10;;;28.20;48.80;;;;;;5095400;28;20052;-80
2021/05/01 06:05:27;;;;;;;7.50;5.25;;;28.40;48.80;;;;;;5095702;28;20024;-81
2021/05/01 06:07:57;;;;;;;7.93;5.00;;;28.40;48.90;;;;;;5083985;28;20426;-81
2021/05/01 06:10:23;;;;;;;7.30;5.30;;;28.50;47.70;;;;;;5095430;28;20455;-82
2021/05/01 06:12:51;;;;;;;6.45;5.07;;;28.60;47.50;;;;;;5094954;28;20477;-81
2021/05/01 06:15:17;;;;;;;16.15;5.78;;;28.70;47.20;;;;;;5096598;28;20390;-81
2021/05/01 06:17:45;;;;;;;6.35;4.38;;;28.70;47.10;;;;;;5095396;28;20144;-81
2021/05/01 06:20:12;;;;;;;6.10;4.57;;;28.70;46.60;;;;;;5095337;28;20020;-81
2021/05/01 06:22:39;;;;;;;5.68;4.60;;;28.80;46.60;;;;;;5093738;28;20039;-73
2021/05/01 06:25:07;;;;;;;4.88;3.30;;;28.80;46.20;;;;;;5091102;28;20485;-78
2021/05/01 06:27:33;;;;;;;5.20;3.20;;;28.70;45.50;;;;;;5095076;28;20458;-81
2021/05/01 06:30:01;;;;;;;5.18;3.65;;;28.80;45.20;;;;;;5094099;28;20036;-78
2021/05/01 06:32:27;;;;;;;6.10;3.85;;;28.90;45.20;;;;;;5095471;28;20024;-77
2021/05/01 06:34:56;;;;;;;5.05;3.38;;;29.00;44.90;;;;;;5093147;28;20133;-85
2021/05/01 06:37:24;;;;;;;4.57;3.58;;;28.90;45.20;;;;;;5094550;28;20031;-86
2021/05/01 06:39:51;;;;;;;5.13;3.50;;;28.90;45.30;;;;;;5094035;28;20108;-79
2021/05/01 06:42:22;;;;;;;6.43;4.00;;;29.00;44.90;;;;;;5094706;28;20028;-79
2021/05/01 06:44:54;;;;;;;6.30;3.80;;;29.20;44.60;;;;;;5093886;28;20034;-79
2021/05/01 06:47:29;;;;;;;7.03;4.38;;;29.40;44.30;;;;;;5094430;28;20111;-79
2021/05/01 06:49:55;;;;;;;7.28;4.85;;;29.60;44.00;;;;;;5094408;28;20047;-79
2021/05/01 06:52:23;;;;;;;7.50;4.35;;;29.60;43.70;;;;;;5092455;28;20055;-79
2021/05/01 06:54:52;;;;;;;5.63;3.40;;;29.70;44.00;;;;;;5095437;28;20024;-79
2021/05/01 06:57:23;;;;;;;6.32;4.15;;;29.90;43.60;;;;;;5095172;28;20028;-79
2021/05/01 06:59:53;;;;;;;6.93;4.60;;;29.90;43.00;;;;;;5095390;28;20020;-80
2021/05/01 07:02:27;;;;;;;6.72;4.68;;;29.90;42.80;;;;;;5090678;28;20036;-79
2021/05/01 07:04:55;;;;;;;7.20;4.68;;;30.20;42.60;;;;;;5085902;28;20030;-79
2021/05/01 07:07:22;;;;;;;7.82;4.28;;;30.20;42.60;;;;;;5093963;28;20036;-78
2021/05/01 07:09:49;;;;;;;6.68;4.32;;;30.30;41.70;;;;;;5094050;28;20051;-79
2021/05/01 07:12:14;;;;;;;6.57;4.28;;;30.20;41.20;;;;;;5093938;28;20047;-79
2021/05/01 07:14:41;;;;;;;7.22;4.90;;;30.10;41.50;;;;;;5094788;28;20028;-79
2021/05/01 07:17:07;;;;;;;6.82;4.53;;;29.90;41.90;;;;;;5093718;28;20027;-79
2021/05/01 07:19:34;;;;;;;7.78;5.50;;;29.70;41.90;;;;;;5093345;28;20020;-79
2021/05/01 07:22:00;;;;;;;8.63;6.13;;;29.90;42.30;;;;;;5094325;28;20026;-79
2021/05/01 07:24:26;;;;;;;10.27;5.95;;;29.90;42.60;;;;;;5094868;28;20012;-79
2021/05/01 07:26:57;;;;;;;8.13;6.40;;;30.00;42.20;;;;;;5095125;28;20028;-79
2021/05/01 07:29:36;;;;;;;9.65;6.43;;;30.00;42.40;;;;;;5094605;28;20020;-79
2021/05/01 07:32:03;;;;;;;7.85;6.15;;;30.20;42.60;;;;;;5093289;28;20016;-80
2021/05/01 07:34:29;;;;;;;7.78;6.47;;;30.30;42.10;;;;;;5094672;28;20020;-79
2021/05/01 07:37:00;;;;;;;11.57;6.28;;;30.50;41.40;;;;;;5094572;28;20343;-79
2021/05/01 07:39:29;;;;;;;7.40;5.43;;;30.80;41.60;;;;;;5093492;28;20111;-80
2021/05/01 07:41:59;;;;;;;7.80;5.10;;;31.00;40.90;;;;;;5093017;28;20523;-79
2021/05/01 07:44:30;;;;;;;6.18;5.00;;;31.20;40.10;;;;;;5094823;28;20020;-79
2021/05/01 07:46:58;;;;;;;13.98;4.53;;;31.10;39.90;;;;;;5093006;28;20414;-79
2021/05/01 07:49:25;;;;;;;6.38;3.72;;;31.10;38.50;;;;;;5093355;28;20458;-79
2021/05/01 07:51:51;;;;;;;5.45;4.20;;;31.10;37.70;;;;;;5093140;28;20343;-79
2021/05/01 07:54:16;;;;;;;9.55;5.70;;;31.20;37.90;;;;;;5093217;28;20038;-79
2021/05/01 07:56:42;;;;;;;7.20;5.18;;;31.10;38.60;;;;;;5093972;28;20028;-79
2021/05/01 07:59:08;;;;;;;7.35;5.07;;;31.20;38.60;;;;;;5093837;28;20020;-79
2021/05/01 08:01:34;;;;;;;7.10;5.45;;;31.30;37.90;;;;;;5094400;28;20020;-79
2021/05/01 08:04:00;;;;;;;7.13;5.30;;;31.20;37.90;;;;;;5093590;28;20020;-79
2021/05/01 08:06:27;;;;;;;6.72;4.78;;;31.20;37.40;;;;;;5093970;28;20458;-78
2021/05/01 08:08:53;;;;;;;6.32;4.95;;;31.30;37.50;;;;;;5092562;28;20032;-79
2021/05/01 08:11:19;;;;;;;6.55;5.28;;;31.50;37.30;;;;;;5094509;28;20030;-79
2021/05/01 08:13:45;;;;;;;9.70;4.63;;;31.60;37.20;;;;;;5092387;28;20097;-79
2021/05/01 08:16:10;;;;;;;8.18;5.30;;;31.70;38.40;;;;;;5093880;28;20020;-79
2021/05/01 08:18:36;;;;;;;8.07;5.32;;;31.70;38.00;;;;;;5092269;28;20047;-76
2021/05/01 08:21:02;;;;;;;11.02;5.95;;;31.70;36.70;;;;;;5089212;28;20024;-76
2021/05/01 08:23:32;;;;;;;9.00;5.60;;;31.80;37.20;;;;;;5092889;28;20028;-80
2021/05/01 08:26:02;;;;;;;8.70;6.00;;;32.00;36.50;;;;;;5091884;28;20161;-79
2021/05/01 08:28:28;;;;;;;8.15;5.72;;;32.20;36.20;;;;;;5092154;28;20105;-78
2021/05/01 08:30:54;;;;;;;8.00;5.55;;;32.20;36.40;;;;;;5092132;28;20024;-79
2021/05/01 08:33:20;;;;;;;7.72;5.07;;;32.30;35.60;;;;;;5093719;28;20555;-80
2021/05/01 08:35:46;;;;;;;7.38;5.15;;;32.50;34.70;;;;;;5094026;28;20094;-80
2021/05/01 08:38:12;;;;;;;10.65;5.68;;;32.60;34.80;;;;;;5093172;28;20103;-79
2021/05/01 08:40:38;;;;;;;7.07;4.68;;;32.40;35.10;;;;;;5092969;28;20596;-79
2021/05/01 08:43:03;;;;;;;7.72;5.97;;;32.30;35.00;;;;;;5094091;28;20020;-79
2021/05/01 08:45:31;;;;;;;8.48;5.70;;;32.00;35.20;;;;;;5093481;28;20051;-80
2021/05/01 08:48:00;;;;;;;7.35;5.93;;;32.00;35.40;;;;;;5092246;28;20043;-80
2021/05/01 08:50:25;;;;;;;6.78;5.47;;;32.10;35.80;;;;;;5091765;28;20016;-78
2021/05/01 08:52:55;;;;;;;7.22;5.30;;;32.10;35.80;;;;;;5091934;28;20077;-79
2021/05/01 08:55:22;;;;;;;6.88;5.20;;;32.10;35.60;;;;;;5091436;28;20055;-80
2021/05/01 08:57:48;;;;;;;6.97;5.78;;;32.30;35.50;;;;;;5093296;28;20024;-80
2021/05/01 09:00:14;;;;;;;7.25;5.93;;;32.30;35.30;;;;;;5091803;28;20031;-79
2021/05/01 09:02:41;;;;;;;6.90;5.38;;;32.40;35.30;;;;;;5093111;28;20162;-80
2021/05/01 09:05:11;;;;;;;6.75;5.70;;;32.30;35.30;;;;;;5093146;28;20020;-80
2021/05/01 09:07:42;;;;;;;6.13;5.25;;;32.30;35.30;;;;;;5091358;28;20020;-79
2021/05/01 09:10:09;;;;;;;8.48;6.13;;;32.30;36.10;;;;;;5092293;28;20339;-80
2021/05/01 09:12:39;;;;;;;8.32;6.22;;;32.20;35.60;;;;;;5092198;28;20040;-80
2021/05/01 09:15:09;;;;;;;7.03;5.85;;;32.10;35.60;;;;;;5092744;28;20024;-80
2021/05/01 09:17:36;;;;;;;6.43;5.53;;;32.10;35.40;;;;;;5091377;28;20016;-80
2021/05/01 09:20:07;;;;;;;6.72;5.50;;;32.30;35.30;;;;;;5091622;28;20031;-80
2021/05/01 09:23:00;;;;;;;7.03;5.40;;;32.50;34.80;;;;;;5091897;28;20028;-80
2021/05/01 09:25:27;;;;;;;7.97;5.95;;;32.50;35.00;;;;;;5092235;28;20486;-80
2021/05/01 09:28:02;;;;;;;8.07;5.63;;;32.60;35.00;;;;;;5092658;28;20020;-80
2021/05/01 09:30:31;;;;;;;8.63;6.40;;;32.60;35.40;;;;;;5092545;28;20035;-79
2021/05/01 09:33:18;;;;;;;8.15;5.85;;;32.60;35.20;;;;;;5091320;28;20098;-80
2021/05/01 09:36:09;;;;;;;9.00;6.55;;;32.60;35.60;;;;;;5080496;28;20051;-80
2021/05/01 09:38:47;;;;;;;7.65;5.72;;;32.60;35.30;;;;;;5069949;28;20054;-80
2021/05/01 09:41:18;;;;;;;8.30;5.57;;;32.50;35.00;;;;;;5091805;28;20020;-79
2021/05/01 09:44:03;;;;;;;7.32;6.43;;;32.50;34.80;;;;;;5092869;28;20069;-80
2021/05/01 09:46:43;;;;;;;8.85;5.75;;;32.70;35.10;;;;;;5092516;28;20450;-80
2021/05/01 09:49:19;;;;;;;8.00;5.05;;;32.80;35.60;;;;;;5091746;28;20027;-80
2021/05/01 09:52:08;;;;;;;9.15;5.53;;;32.90;34.50;;;;;;5091396;28;20024;-79
2021/05/01 09:54:36;;;;;;;7.45;4.80;;;32.90;34.20;;;;;;5092605;28;20028;-80
2021/05/01 09:57:03;;;;;;;9.63;4.70;;;33.10;33.50;;;;;;5090945;28;20031;-80
2021/05/01 09:59:43;;;;;;;7.95;5.82;;;33.00;33.60;;;;;;5091587;28;20070;-80
2021/05/01 10:02:11;;;;;;;9.15;6.15;;;32.70;33.60;;;;;;5092306;28;20016;-80
2021/05/01 10:04:38;;;;;;;7.60;5.45;;;32.70;34.00;;;;;;5092183;28;20016;-79
2021/05/01 10:07:11;;;;;;;9.73;7.00;;;32.80;33.60;;;;;;5092141;28;20351;-79
2021/05/01 10:09:39;;;;;;;9.38;6.80;;;32.70;33.40;;;;;;5092695;28;20038;-80
2021/05/01 10:12:15;;;;;;;9.80;6.45;;;32.10;33.60;;;;;;5091111;28;20048;-80
2021/05/01 10:14:50;;;;;;;7.45;6.40;;;31.30;34.00;;;;;;5078231;28;20028;-80
2021/05/01 10:17:16;;;;;;;7.65;5.82;;;30.60;34.40;;;;;;5092239;28;20028;-79
2021/05/01 10:19:55;;;;;;;8.48;6.13;;;29.60;34.80;;;;;;5091138;28;20107;-80
2021/05/01 10:22:31;;;;;;;7.30;6.18;;;29.00;35.30;;;;;;5090854;28;20031;-79
2021/05/01 10:25:04;;;;;;;8.73;5.90;;;28.50;36.00;;;;;;5090859;28;20020;-79
2021/05/01 10:27:44;;;;;;;6.45;4.35;;;28.60;36.50;;;;;;5095911;28;20016;-79
2021/05/01 10:30:27;;;;;;;7.88;5.50;;;28.70;35.60;;;;;;5094999;28;20023;-80
2021/05/01 10:33:16;;;;;;;7.97;6.45;;;28.80;35.90;;;;;;5096170;28;20035;-80
2021/05/01 10:35:54;;;;;;;5.25;4.30;;;28.80;36.00;;;;;;5083466;28;20024;-80
2021/05/01 10:38:21;;;;;;;7.13;4.65;;;28.40;35.80;;;;;;5095428;28;20485;-79
2021/05/01 10:40:56;;;;;;;8.60;6.00;;;28.50;36.20;;;;;;5095979;28;20450;-79
2021/05/01 10:43:29;;;;;;;7.47;5.82;;;28.90;35.70;;;;;;5094052;28;20020;-79
2021/05/01 10:46:05;;;;;;;8.00;5.63;;;29.10;35.30;;;;;;5094638;28;20446;-79
2021/05/01 10:48:45;;;;;;;9.77;6.95;;;29.30;34.30;;;;;;5095437;28;20062;-79
2021/05/01 10:51:11;;;;;;;6.82;3.78;;;29.40;34.40;;;;;;5095788;28;20008;-80
2021/05/01 10:53:38;;;;;;;5.55;3.45;;;29.70;33.10;;;;;;5095326;28;20027;-80
2021/05/01 10:56:06;;;;;;;6.15;3.67;;;29.80;32.40;;;;;;5094423;28;20583;-80
2021/05/01 10:58:46;;;;;;;6.20;4.43;;;30.00;32.30;;;;;;5093671;28;20374;-79
2021/05/01 11:01:28;;;;;;;5.82;4.20;;;30.10;32.60;;;;;;5094317;28;20145;-80
2021/05/01 11:04:02;;;;;;;5.05;3.67;;;30.00;32.50;;;;;;5094927;28;20048;-81
2021/05/01 11:06:36;;;;;;;8.23;6.13;;;30.10;32.60;;;;;;5094792;28;20031;-79
2021/05/01 11:09:07;;;;;;;7.82;5.88;;;30.20;32.90;;;;;;5093862;28;20037;-79
2021/05/01 11:11:38;;;;;;;8.07;4.93;;;30.20;33.10;;;;;;5094080;28;20023;-80
2021/05/01 11:14:15;;;;;;;7.28;4.60;;;30.10;33.00;;;;;;5094735;28;20076;-79
2021/05/01 11:17:10;;;;;;;7.97;4.35;;;30.00;32.90;;;;;;5093353;28;20056;-80
2021/05/01 11:19:46;;;;;;;6.53;3.53;;;29.80;32.50;;;;;;5072103;28;20377;-80
2021/05/01 11:22:14;;;;;;;9.15;6.03;;;29.70;32.40;;;;;;5095361;28;20021;-80
2021/05/01 11:24:43;;;;;;;13.48;6.70;;;29.50;32.50;;;;;;5094221;28;20016;-80
2021/05/01 11:27:08;;;;;;;8.32;5.88;;;29.30;32.60;;;;;;5093993;28;20089;-80
2021/05/01 11:29:35;;;;;;;10.25;5.47;;;29.00;32.90;;;;;;5093543;28;20058;-79
2021/05/01 11:32:02;;;;;;;7.85;7.05;;;28.60;33.60;;;;;;5094634;28;20020;-79
2021/05/01 11:34:31;;;;;;;8.98;6.60;;;28.20;33.90;;;;;;5094662;28;20046;-79
2021/05/01 11:37:01;;;;;;;12.98;10.35;;;27.90;34.10;;;;;;5092696;28;20031;-79
2021/05/01 11:39:28;;;;;;;9.40;7.82;;;27.60;35.00;;;;;;5094835;28;20019;-80
2021/05/01 11:41:56;;;;;;;10.20;7.00;;;27.30;34.90;;;;;;5094206;28;20012;-79
2021/05/01 11:44:24;;;;;;;6.50;5.35;;;27.00;35.20;;;;;;5094845;28;20105;-80
2021/05/01 11:47:04;;;;;;;13.27;5.13;;;26.70;35.50;;;;;;5094047;28;20024;-80
2021/05/01 11:49:30;;;;;;;7.95;4.47;;;26.40;36.00;;;;;;5094620;28;20051;-80
2021/05/01 11:51:56;;;;;;;7.82;5.10;;;26.30;36.40;;;;;;5092940;28;20020;-80
2021/05/01 11:54:59;;;;;;;13.75;6.20;;;26.20;36.80;;;;;;5093071;28;20371;-80
2021/05/01 11:57:36;;;;;;;7.93;5.15;;;26.00;37.50;;;;;;5092796;28;20123;-80
2021/05/01 12:00:02;;;;;;;10.57;4.93;;;25.80;38.40;;;;;;5093611;28;20024;-80
2021/05/01 12:02:39;;;;;;;9.75;5.28;;;25.80;38.50;;;;;;5093536;28;20027;-78
2021/05/01 12:05:18;;;;;;;9.35;5.38;;;25.70;38.60;;;;;;5094520;28;20478;-80
2021/05/01 12:07:48;;;;;;;5.95;4.60;;;25.70;38.80;;;;;;5079452;28;20023;-80
2021/05/01 12:10:16;;;;;;;5.88;4.43;;;25.70;38.50;;;;;;5093042;28;20031;-81
2021/05/01 12:13:14;;;;;;;9.65;7.40;;;25.50;38.80;;;;;;5092213;28;20044;-80
2021/05/01 12:15:47;;;;;;;8.52;5.68;;;25.20;38.80;;;;;;5078116;28;20059;-80
2021/05/01 12:18:13;;;;;;;8.07;5.95;;;25.00;39.00;;;;;;5092814;28;20092;-80
2021/05/01 12:20:39;;;;;;;10.70;6.85;;;25.00;39.10;;;;;;5091871;28;20062;-79
2021/05/01 12:23:13;;;;;;;10.02;6.90;;;24.90;39.40;;;;;;5093989;28;20012;-81
2021/05/01 12:25:51;;;;;;;8.05;6.10;;;24.80;39.40;;;;;;5093927;28;20028;-80
2021/05/01 12:28:33;;;;;;;10.65;9.25;;;24.70;39.80;;;;;;5079997;28;20118;-80
2021/05/01 12:31:00;;;;;;;10.45;7.75;;;24.50;40.30;;;;;;5092257;28;20374;-80
2021/05/01 12:33:29;;;;;;;8.13;5.35;;;24.50;40.50;;;;;;5092282;28;20024;-80
2021/05/01 12:35:58;;;;;;;8.40;5.40;;;24.40;40.80;;;;;;5093612;28;20477;-80
2021/05/01 12:38:25;;;;;;;7.53;4.85;;;24.30;40.80;;;;;;5091876;28;20458;-80
2021/05/01 12:41:06;;;;;;;8.50;6.00;;;24.30;40.90;;;;;;5093485;28;20024;-79
2021/05/01 12:43:31;;;;;;;10.23;7.07;;;24.30;41.30;;;;;;5091993;28;20146;-80
2021/05/01 12:45:58;;;;;;;18.80;15.77;;;24.30;41.10;;;;;;5092171;28;20542;-80
2021/05/01 12:48:43;;;;;;;16.30;13.93;;;24.20;41.20;;;;;;5091479;28;20016;-79
2021/05/01 12:51:22;;;;;;;36.42;32.85;;;24.10;41.40;;;;;;5092975;28;20529;-80